createdAt,value
2018-08-24T00:00:57.106Z,1008.08
2018-08-24T00:02:06.955Z,1008.1
2018-08-24T00:03:16.532Z,1008.07
2018-08-24T00:04:25.836Z,1008.07
2018-08-24T00:05:35.410Z,1008.1
2018-08-24T00:06:45.256Z,1008.05
2018-08-24T00:07:55.110Z,1008.06
2018-08-24T00:09:04.683Z,1008.08
2018-08-24T00:10:14.791Z,1008.06
2018-08-24T00:11:24.684Z,1008.08
2018-08-24T00:12:34.529Z,1008.08
2018-08-24T00:13:44.112Z,1008.09
2018-08-24T00:14:53.957Z,1008.03
2018-08-24T00:16:03.526Z,1008.07
2018-08-24T00:17:13.098Z,1008.02
2018-08-24T00:18:23.205Z,1008.04
2018-08-24T00:19:33.315Z,1008.08
2018-08-24T00:20:43.162Z,1008.05
2018-08-24T00:21:52.459Z,1007.98
2018-08-24T00:23:02.034Z,1007.98
2018-08-24T00:24:11.870Z,1008.02
2018-08-24T00:25:21.992Z,1007.99
2018-08-24T00:26:31.569Z,1008
2018-08-24T00:27:41.412Z,1008.01
2018-08-24T00:28:50.984Z,1008.01
2018-08-24T00:30:00.558Z,1008.09
2018-08-24T00:31:10.399Z,1008.09
2018-08-24T00:32:19.973Z,1008.1
2018-08-24T00:33:29.817Z,1008.08
2018-08-24T00:34:39.659Z,1008.11
2018-08-24T00:35:49.502Z,1008.12
2018-08-24T00:36:59.338Z,1008.1
2018-08-24T00:38:08.956Z,1008.07
2018-08-24T00:39:25.345Z,1008.09
2018-08-24T00:40:35.462Z,1008.08
2018-08-24T00:41:45.624Z,1008.12
2018-08-24T00:42:55.740Z,1008.1
2018-08-24T00:44:05.579Z,1008.13
2018-08-24T00:45:14.885Z,1008.12
2018-08-24T00:46:24.728Z,1008.14
2018-08-24T00:47:34.569Z,1008.14
2018-08-24T00:48:44.675Z,1008.2
2018-08-24T00:49:54.247Z,1008.19
2018-08-24T00:51:03.819Z,1008.13
2018-08-24T00:52:12.854Z,1008.13
2018-08-24T00:53:22.425Z,1008.12
2018-08-24T00:54:32.270Z,1008.17
2018-08-24T00:55:42.109Z,1008.11
2018-08-24T00:56:52.220Z,1008.16
2018-08-24T00:58:02.057Z,1008.2
2018-08-24T00:59:11.627Z,1008.26
2018-08-24T01:00:20.927Z,1008.24
2018-08-24T01:01:30.234Z,1008.32
2018-08-24T01:02:40.083Z,1008.37
2018-08-24T01:03:49.657Z,1008.41
2018-08-24T01:04:59.767Z,1008.48
2018-08-24T01:06:09.350Z,1008.48
2018-08-24T01:07:18.922Z,1008.55
2018-08-24T01:08:29.121Z,1008.53
2018-08-24T01:09:38.963Z,1008.54
2018-08-24T01:10:48.809Z,1008.55
2018-08-24T01:11:58.646Z,1008.53
2018-08-24T01:13:08.767Z,1008.56
2018-08-24T01:14:18.612Z,1008.61
2018-08-24T01:15:28.716Z,1008.47
2018-08-24T01:16:38.291Z,1008.4
2018-08-24T01:17:47.326Z,1008.4
2018-08-24T01:18:57.172Z,1008.4
2018-08-24T01:20:07.009Z,1008.41
2018-08-24T01:21:16.592Z,1008.45
2018-08-24T01:22:26.430Z,1008.56
2018-08-24T01:23:35.728Z,1008.53
2018-08-24T01:24:45.565Z,1008.53
2018-08-24T01:25:55.410Z,1008.49
2018-08-24T01:27:04.984Z,1008.44
2018-08-24T01:28:14.827Z,1008.39
2018-08-24T01:29:24.399Z,1008.41
2018-08-24T01:30:34.235Z,1008.39
2018-08-24T01:31:44.078Z,1008.4
2018-08-24T01:32:53.964Z,1008.42
2018-08-24T01:34:03.537Z,1008.43
2018-08-24T01:35:13.119Z,1008.52
2018-08-24T01:36:22.958Z,1008.46
2018-08-24T01:37:32.792Z,1008.58
2018-08-24T01:38:42.629Z,1008.4
2018-08-24T01:39:52.468Z,1008.34
2018-08-24T01:41:02.035Z,1008.34
2018-08-24T01:42:11.606Z,1008.35
2018-08-24T01:43:21.444Z,1008.32
2018-08-24T01:44:31.547Z,1008.29
2018-08-24T01:45:41.651Z,1008.31
2018-08-24T01:46:51.764Z,1008.34
2018-08-24T01:48:00.797Z,1008.38
2018-08-24T01:49:10.636Z,1008.37
2018-08-24T01:50:20.203Z,1008.43
2018-08-24T01:51:30.041Z,1008.49
2018-08-24T01:52:39.881Z,1008.46
2018-08-24T01:53:49.989Z,1008.47
2018-08-24T01:54:59.824Z,1008.43
2018-08-24T01:56:09.396Z,1008.44
2018-08-24T01:57:19.503Z,1008.46
2018-08-24T01:58:29.337Z,1008.46
2018-08-24T01:59:38.903Z,1008.38
2018-08-24T02:00:48.474Z,1008.37
2018-08-24T02:01:58.363Z,1008.35
2018-08-24T02:03:07.931Z,1008.25
2018-08-24T02:04:17.801Z,1008.31
2018-08-24T02:05:27.645Z,1008.26
2018-08-24T02:06:37.482Z,1008.32
2018-08-24T02:07:47.325Z,1008.34
2018-08-24T02:08:57.165Z,1008.36
2018-08-24T02:10:06.999Z,1008.3
2018-08-24T02:11:16.571Z,1008.24
2018-08-24T02:12:26.410Z,1008.2
2018-08-24T02:13:35.440Z,1008.17
2018-08-24T02:14:45.283Z,1008.17
2018-08-24T02:15:54.859Z,1008.13
2018-08-24T02:17:04.440Z,1008.19
2018-08-24T02:18:14.012Z,1008.16
2018-08-24T02:19:24.121Z,1008.2
2018-08-24T02:20:33.153Z,1008.2
2018-08-24T02:21:43.000Z,1008.22
2018-08-24T02:22:53.110Z,1008.18
2018-08-24T02:24:02.412Z,1008.1
2018-08-24T02:25:12.254Z,1008.05
2018-08-24T02:26:22.361Z,1008.06
2018-08-24T02:27:32.202Z,1008.13
2018-08-24T02:28:42.045Z,1008.14
2018-08-24T02:29:52.153Z,1008.13
2018-08-24T02:31:02.035Z,1008.19
2018-08-24T02:32:11.737Z,1008.15
2018-08-24T02:33:21.581Z,1008.16
2018-08-24T02:34:31.148Z,1008.18
2018-08-24T02:35:40.988Z,1008.17
2018-08-24T02:36:50.562Z,1008.19
2018-08-24T02:38:00.133Z,1008.18
2018-08-24T02:39:09.446Z,1008.21
2018-08-24T02:40:19.296Z,1008.22
2018-08-24T02:41:29.404Z,1008.23
2018-08-24T02:42:38.432Z,1008.2
2018-08-24T02:43:48.002Z,1008.21
2018-08-24T02:44:58.196Z,1008.15
2018-08-24T02:46:08.463Z,1008.14
2018-08-24T02:47:18.309Z,1008.19
2018-08-24T02:48:28.197Z,1008.17
2018-08-24T02:49:37.764Z,1008.16
2018-08-24T02:50:47.346Z,1008.18
2018-08-24T02:51:56.913Z,1008.24
2018-08-24T02:53:06.751Z,1008.25
2018-08-24T02:54:16.916Z,1008.25
2018-08-24T02:55:26.492Z,1008.27
2018-08-24T02:56:36.332Z,1008.34
2018-08-24T02:57:46.187Z,1008.31
2018-08-24T02:58:55.506Z,1008.34
2018-08-24T03:00:05.356Z,1008.35
2018-08-24T03:01:15.469Z,1008.33
2018-08-24T03:02:25.331Z,1008.31
2018-08-24T03:03:34.905Z,1008.36
2018-08-24T03:04:45.006Z,1008.39
2018-08-24T03:05:54.841Z,1008.34
2018-08-24T03:07:04.416Z,1008.3
2018-08-24T03:08:14.005Z,1008.28
2018-08-24T03:09:24.316Z,1008.34
2018-08-24T03:10:33.616Z,1008.31
2018-08-24T03:11:43.731Z,1008.38
2018-08-24T03:12:53.305Z,1008.29
2018-08-24T03:14:02.922Z,1008.32
2018-08-24T03:15:11.955Z,1008.28
2018-08-24T03:16:21.873Z,1008.3
2018-08-24T03:17:32.636Z,1008.32
2018-08-24T03:18:42.753Z,1008.33
2018-08-24T03:19:52.596Z,1008.39
2018-08-24T03:21:02.175Z,1008.38
2018-08-24T03:22:11.473Z,1008.38
2018-08-24T03:23:21.327Z,1008.42
2018-08-24T03:24:31.434Z,1008.42
2018-08-24T03:25:41.540Z,1008.47
2018-08-24T03:26:51.109Z,1008.46
2018-08-24T03:28:00.950Z,1008.46
2018-08-24T03:29:10.787Z,1008.46
2018-08-24T03:30:20.358Z,1008.42
2018-08-24T03:31:30.487Z,1008.41
2018-08-24T03:32:40.331Z,1008.43
2018-08-24T03:33:49.629Z,1008.41
2018-08-24T03:34:59.207Z,1008.42
2018-08-24T03:36:08.502Z,1008.42
2018-08-24T03:37:18.338Z,1008.41
2018-08-24T03:38:27.365Z,1008.44
2018-08-24T03:39:37.479Z,1008.43
2018-08-24T03:40:47.045Z,1008.46
2018-08-24T03:41:56.607Z,1008.53
2018-08-24T03:43:06.182Z,1008.51
2018-08-24T03:44:16.034Z,1008.53
2018-08-24T03:45:25.338Z,1008.54
2018-08-24T03:46:34.910Z,1008.51
2018-08-24T03:47:44.476Z,1008.56
2018-08-24T03:48:54.042Z,1008.56
2018-08-24T03:50:03.614Z,1008.56
2018-08-24T03:51:13.452Z,1008.57
2018-08-24T03:52:23.565Z,1008.52
2018-08-24T03:53:33.405Z,1008.54
2018-08-24T03:54:43.245Z,1008.55
2018-08-24T03:55:52.833Z,1008.52
2018-08-24T03:57:02.130Z,1008.56
2018-08-24T03:58:11.698Z,1008.59
2018-08-24T03:59:21.270Z,1008.62
2018-08-24T04:00:31.111Z,1008.63
2018-08-24T04:01:40.952Z,1008.61
2018-08-24T04:02:50.525Z,1008.6
2018-08-24T04:04:00.151Z,1008.62
2018-08-24T04:05:09.987Z,1008.62
2018-08-24T04:06:20.105Z,1008.61
2018-08-24T04:07:29.947Z,1008.62
2018-08-24T04:08:39.237Z,1008.68
2018-08-24T04:09:49.411Z,1008.71
2018-08-24T04:10:59.244Z,1008.67
2018-08-24T04:12:09.076Z,1008.73
2018-08-24T04:13:18.909Z,1008.69
2018-08-24T04:14:28.480Z,1008.71
2018-08-24T04:15:38.326Z,1008.68
2018-08-24T04:16:48.211Z,1008.68
2018-08-24T04:17:57.799Z,1008.64
2018-08-24T04:19:07.371Z,1008.65
2018-08-24T04:20:17.286Z,1008.63
2018-08-24T04:21:26.869Z,1008.68
2018-08-24T04:22:36.450Z,1008.66
2018-08-24T04:23:46.293Z,1008.68
2018-08-24T04:24:55.864Z,1008.72
2018-08-24T04:26:06.104Z,1008.76
2018-08-24T04:27:15.995Z,1008.79
2018-08-24T04:28:26.102Z,1008.84
2018-08-24T04:29:35.937Z,1008.88
2018-08-24T04:30:45.773Z,1008.91
2018-08-24T04:31:55.345Z,1008.92
2018-08-24T04:33:05.448Z,1008.98
2018-08-24T04:34:15.286Z,1008.94
2018-08-24T04:35:24.587Z,1008.9
2018-08-24T04:36:34.752Z,1008.91
2018-08-24T04:37:44.595Z,1008.93
2018-08-24T04:38:54.447Z,1008.91
2018-08-24T04:40:04.320Z,1008.91
2018-08-24T04:41:13.710Z,1008.94
2018-08-24T04:42:23.564Z,1008.95
2018-08-24T04:43:33.437Z,1008.91
2018-08-24T04:44:43.285Z,1008.93
2018-08-24T04:45:52.878Z,1008.91
2018-08-24T04:47:02.533Z,1008.93
2018-08-24T04:48:11.834Z,1008.94
2018-08-24T04:49:21.405Z,1008.94
2018-08-24T04:50:31.303Z,1008.97
2018-08-24T04:51:41.150Z,1008.96
2018-08-24T04:52:50.457Z,1008.97
2018-08-24T04:54:00.570Z,1008.92
2018-08-24T04:55:09.604Z,1008.95
2018-08-24T04:56:19.181Z,1008.96
2018-08-24T04:57:28.748Z,1008.96
2018-08-24T04:58:37.780Z,1008.96
2018-08-24T04:59:47.353Z,1008.95
2018-08-24T05:00:57.463Z,1008.97
2018-08-24T05:02:07.306Z,1008.99
2018-08-24T05:03:17.151Z,1008.96
2018-08-24T05:04:26.991Z,1008.97
2018-08-24T05:05:36.084Z,1008.98
2018-08-24T05:06:46.417Z,1008.95
2018-08-24T05:07:56.532Z,1008.92
2018-08-24T05:09:06.646Z,1008.86
2018-08-24T05:10:16.496Z,1008.87
2018-08-24T05:11:26.618Z,1008.9
2018-08-24T05:12:35.919Z,1008.93
2018-08-24T05:13:45.760Z,1008.94
2018-08-24T05:14:55.334Z,1008.92
2018-08-24T05:16:04.389Z,1008.95
2018-08-24T05:17:14.500Z,1008.92
2018-08-24T05:18:24.668Z,1008.92
2018-08-24T05:19:34.502Z,1008.88
2018-08-24T05:20:44.340Z,1008.9
2018-08-24T05:21:53.685Z,1008.93
2018-08-24T05:23:03.214Z,1008.95
2018-08-24T05:24:12.516Z,1008.95
2018-08-24T05:25:22.089Z,1008.92
2018-08-24T05:26:31.664Z,1008.94
2018-08-24T05:27:41.777Z,1008.88
2018-08-24T05:28:51.616Z,1008.89
2018-08-24T05:30:00.918Z,1008.92
2018-08-24T05:31:10.777Z,1008.91
2018-08-24T05:32:20.624Z,1008.94
2018-08-24T05:33:30.196Z,1008.9
2018-08-24T05:34:40.315Z,1008.88
2018-08-24T05:35:50.447Z,1008.87
2018-08-24T05:37:00.265Z,1008.86
2018-08-24T05:38:10.382Z,1008.85
2018-08-24T05:39:19.951Z,1008.82
2018-08-24T05:40:29.525Z,1008.87
2018-08-24T05:41:39.095Z,1008.83
2018-08-24T05:42:48.666Z,1008.79
2018-08-24T05:43:58.509Z,1008.78
2018-08-24T05:45:08.624Z,1008.79
2018-08-24T05:46:18.473Z,1008.77
2018-08-24T05:47:28.043Z,1008.76
2018-08-24T05:48:37.882Z,1008.78
2018-08-24T05:49:48.273Z,1008.8
2018-08-24T05:50:58.120Z,1008.82
2018-08-24T05:52:07.696Z,1008.84
2018-08-24T05:53:16.995Z,1008.8
2018-08-24T05:54:26.571Z,1008.82
2018-08-24T05:55:36.219Z,1008.85
2018-08-24T05:56:46.551Z,1008.82
2018-08-24T05:57:56.126Z,1008.85
2018-08-24T05:59:05.752Z,1008.85
2018-08-24T06:00:15.596Z,1008.91
2018-08-24T06:01:25.163Z,1008.92
2018-08-24T06:02:35.000Z,1008.93
2018-08-24T06:03:44.575Z,1008.98
2018-08-24T06:04:53.383Z,1008.95
2018-08-24T06:06:03.253Z,1008.97
2018-08-24T06:07:13.364Z,1008.88
2018-08-24T06:08:23.216Z,1008.87
2018-08-24T06:09:32.515Z,1008.9
2018-08-24T06:10:42.370Z,1008.89
2018-08-24T06:11:52.270Z,1008.94
2018-08-24T06:13:02.377Z,1008.93
2018-08-24T06:14:11.687Z,1008.94
2018-08-24T06:15:21.538Z,1008.93
2018-08-24T06:16:31.377Z,1008.92
2018-08-24T06:17:40.404Z,1008.93
2018-08-24T06:18:50.516Z,1008.93
2018-08-24T06:19:59.816Z,1008.96
2018-08-24T06:21:08.850Z,1008.95
2018-08-24T06:22:18.706Z,1008.94
2018-08-24T06:23:28.549Z,1009.02
2018-08-24T06:24:38.808Z,1008.96
2018-08-24T06:25:48.953Z,1008.98
2018-08-24T06:26:58.786Z,1009
2018-08-24T06:28:08.086Z,1009.02
2018-08-24T06:29:17.925Z,1008.99
2018-08-24T06:30:28.049Z,1009.02
2018-08-24T06:31:37.903Z,1008.94
2018-08-24T06:32:47.559Z,1008.95
2018-08-24T06:33:57.749Z,1008.98
2018-08-24T06:35:07.321Z,1008.95
2018-08-24T06:36:17.432Z,1008.97
2018-08-24T06:37:27.552Z,1008.94
2018-08-24T06:38:37.131Z,1008.95
2018-08-24T06:39:46.969Z,1008.96
2018-08-24T06:40:56.824Z,1008.96
2018-08-24T06:42:06.397Z,1008.94
2018-08-24T06:43:15.701Z,1008.98
2018-08-24T06:44:25.279Z,1008.98
2018-08-24T06:45:34.846Z,1008.95
2018-08-24T06:46:44.682Z,1008.97
2018-08-24T06:47:54.517Z,1008.98
2018-08-24T06:49:04.082Z,1008.96
2018-08-24T06:50:14.190Z,1008.97
2018-08-24T06:51:23.809Z,1008.98
2018-08-24T06:52:33.647Z,1008.98
2018-08-24T06:53:43.847Z,1008.98
2018-08-24T06:54:54.537Z,1008.97
2018-08-24T06:56:04.384Z,1008.95
2018-08-24T06:57:14.234Z,1008.94
2018-08-24T06:58:24.352Z,1008.99
2018-08-24T06:59:34.282Z,1008.95
2018-08-24T07:00:44.578Z,1008.97
2018-08-24T07:01:54.417Z,1008.97
2018-08-24T07:03:04.035Z,1009
2018-08-24T07:04:13.600Z,1009.03
2018-08-24T07:05:23.171Z,1009.08
2018-08-24T07:06:33.026Z,1009.01
2018-08-24T07:07:43.134Z,1008.97
2018-08-24T07:08:52.709Z,1008.98
2018-08-24T07:10:02.275Z,1009
2018-08-24T07:11:11.877Z,1009.03
2018-08-24T07:12:21.743Z,1009.05
2018-08-24T07:13:31.853Z,1009.07
2018-08-24T07:14:41.455Z,1009.06
2018-08-24T07:15:51.293Z,1009.05
2018-08-24T07:17:00.867Z,1009.07
2018-08-24T07:18:10.441Z,1009.1
2018-08-24T07:19:20.008Z,1009.1
2018-08-24T07:20:29.862Z,1009.08
2018-08-24T07:21:39.429Z,1009.05
2018-08-24T07:22:49.268Z,1009.04
2018-08-24T07:23:58.840Z,1009.03
2018-08-24T07:25:09.011Z,1009.02
2018-08-24T07:26:19.719Z,1009.06
2018-08-24T07:27:29.566Z,1009.06
2018-08-24T07:28:39.410Z,1009.08
2018-08-24T07:29:49.300Z,1009.05
2018-08-24T07:30:59.412Z,1009.05
2018-08-24T07:32:08.987Z,1009.05
2018-08-24T07:33:18.553Z,1009
2018-08-24T07:34:28.133Z,1008.97
2018-08-24T07:35:37.970Z,1009.01
2018-08-24T07:36:47.540Z,1009.03
2018-08-24T07:37:57.120Z,1009.06
2018-08-24T07:39:06.961Z,1009.12
2018-08-24T07:40:17.068Z,1009.1
2018-08-24T07:41:26.970Z,1009.11
2018-08-24T07:42:37.755Z,1009.16
2018-08-24T07:43:47.923Z,1009.21
2018-08-24T07:44:57.772Z,1009.2
2018-08-24T07:46:07.078Z,1009.22
2018-08-24T07:47:16.380Z,1009.25
2018-08-24T07:48:26.221Z,1009.26
2018-08-24T07:49:35.790Z,1009.28
2018-08-24T07:50:45.370Z,1009.28
2018-08-24T07:51:55.257Z,1009.26
2018-08-24T07:53:05.104Z,1009.25
2018-08-24T07:54:14.674Z,1009.27
2018-08-24T07:55:24.569Z,1009.24
2018-08-24T07:56:33.934Z,1009.26
2018-08-24T07:57:44.058Z,1009.28
2018-08-24T07:58:53.678Z,1009.24
2018-08-24T08:00:03.515Z,1009.25
2018-08-24T08:01:12.867Z,1009.24
2018-08-24T08:02:22.709Z,1009.26
2018-08-24T08:03:32.547Z,1009.17
2018-08-24T08:04:42.396Z,1009.3
2018-08-24T08:05:51.967Z,1009.35
2018-08-24T08:07:01.810Z,1009.35
2018-08-24T08:08:11.647Z,1009.4
2018-08-24T08:09:21.490Z,1009.35
2018-08-24T08:10:31.065Z,1009.41
2018-08-24T08:11:40.903Z,1009.48
2018-08-24T08:12:50.473Z,1009.58
2018-08-24T08:14:00.311Z,1009.57
2018-08-24T08:15:10.163Z,1009.51
2018-08-24T08:16:20.031Z,1009.5
2018-08-24T08:17:29.611Z,1009.45
2018-08-24T08:18:39.545Z,1009.47
2018-08-24T08:19:49.618Z,1009.54
2018-08-24T08:20:59.400Z,1009.55
2018-08-24T08:22:09.551Z,1009.54
2018-08-24T08:23:18.865Z,1009.56
2018-08-24T08:24:28.444Z,1009.59
2018-08-24T08:25:38.135Z,1009.58
2018-08-24T08:26:47.976Z,1009.54
2018-08-24T08:27:57.545Z,1009.56
2018-08-24T08:29:07.390Z,1009.54
2018-08-24T08:30:16.687Z,1009.59
2018-08-24T08:31:26.819Z,1009.58
2018-08-24T08:32:36.677Z,1009.62
2018-08-24T08:33:45.708Z,1009.61
2018-08-24T08:34:55.565Z,1009.59
2018-08-24T08:36:04.866Z,1009.67
2018-08-24T08:37:14.172Z,1009.69
2018-08-24T08:38:24.309Z,1009.7
2018-08-24T08:39:34.148Z,1009.72
2018-08-24T08:40:44.257Z,1009.72
2018-08-24T08:41:53.840Z,1009.71
2018-08-24T08:43:03.418Z,1009.72
2018-08-24T08:44:12.987Z,1009.76
2018-08-24T08:45:22.887Z,1009.77
2018-08-24T08:46:32.738Z,1009.73
2018-08-24T08:47:42.304Z,1009.77
2018-08-24T08:48:52.146Z,1009.73
2018-08-24T08:50:01.988Z,1009.79
2018-08-24T08:51:11.560Z,1009.81
2018-08-24T08:52:21.399Z,1009.84
2018-08-24T08:53:31.012Z,1009.76
2018-08-24T08:54:41.277Z,1009.8
2018-08-24T08:55:50.843Z,1009.86
2018-08-24T08:56:59.874Z,1009.87
2018-08-24T08:58:09.711Z,1009.86
2018-08-24T08:59:19.868Z,1009.86
2018-08-24T09:00:29.978Z,1009.81
2018-08-24T09:01:40.096Z,1009.84
2018-08-24T09:02:49.666Z,1009.85
2018-08-24T09:03:59.509Z,1009.84
2018-08-24T09:05:09.355Z,1009.86
2018-08-24T09:06:19.257Z,1009.91
2018-08-24T09:07:29.703Z,1009.96
2018-08-24T09:08:39.541Z,1009.95
2018-08-24T09:09:49.122Z,1009.97
2018-08-24T09:10:58.703Z,1009.96
2018-08-24T09:12:08.543Z,1010.02
2018-08-24T09:13:18.395Z,1010.01
2018-08-24T09:14:28.235Z,1009.98
2018-08-24T09:15:38.113Z,1010.08
2018-08-24T09:16:48.237Z,1010.1
2018-08-24T09:17:58.070Z,1010.08
2018-08-24T09:19:07.369Z,1010.04
2018-08-24T09:20:17.214Z,1010.05
2018-08-24T09:21:27.334Z,1010.04
2018-08-24T09:22:36.909Z,1010.07
2018-08-24T09:23:46.478Z,1010.08
2018-08-24T09:24:56.324Z,1009.98
2018-08-24T09:26:05.896Z,1010.05
2018-08-24T09:27:16.014Z,1010.08
2018-08-24T09:28:26.173Z,1010.06
2018-08-24T09:29:36.020Z,1010.06
2018-08-24T09:30:45.873Z,1009.99
2018-08-24T09:31:55.990Z,1010.04
2018-08-24T09:33:05.575Z,1010.09
2018-08-24T09:34:15.195Z,1010.12
2018-08-24T09:35:24.763Z,1010.1
2018-08-24T09:36:34.605Z,1010.08
2018-08-24T09:37:44.720Z,1010.13
2018-08-24T09:38:54.652Z,1010.11
2018-08-24T09:40:04.496Z,1010.08
2018-08-24T09:41:14.611Z,1010.07
2018-08-24T09:42:23.909Z,1010.1
2018-08-24T09:43:33.746Z,1010.12
2018-08-24T09:44:43.048Z,1010.11
2018-08-24T09:45:52.624Z,1010.15
2018-08-24T09:47:02.469Z,1010.15
2018-08-24T09:48:12.314Z,1010.14
2018-08-24T09:49:21.892Z,1010.04
2018-08-24T09:50:31.732Z,1010.07
2018-08-24T09:51:41.348Z,1010.09
2018-08-24T09:52:50.653Z,1010.12
2018-08-24T09:54:00.496Z,1010.08
2018-08-24T09:55:10.609Z,1010.08
2018-08-24T09:56:20.448Z,1010.03
2018-08-24T09:57:30.065Z,1010.02
2018-08-24T09:58:39.371Z,1010.03
2018-08-24T09:59:49.488Z,1010.06
2018-08-24T10:00:59.333Z,1010.02
2018-08-24T10:02:09.441Z,1010.07
2018-08-24T10:03:18.746Z,1010.06
2018-08-24T10:04:28.608Z,1009.98
2018-08-24T10:05:37.909Z,1009.99
2018-08-24T10:06:47.504Z,1009.93
2018-08-24T10:07:57.628Z,1009.96
2018-08-24T10:09:07.528Z,1009.97
2018-08-24T10:10:17.640Z,1009.87
2018-08-24T10:11:27.504Z,1009.81
2018-08-24T10:12:37.149Z,1009.8
2018-08-24T10:13:46.757Z,1009.89
2018-08-24T10:14:56.608Z,1009.86
2018-08-24T10:16:06.730Z,1009.86
2018-08-24T10:17:16.572Z,1009.81
2018-08-24T10:18:25.880Z,1009.78
2018-08-24T10:19:35.993Z,1009.73
2018-08-24T10:20:45.564Z,1009.7
2018-08-24T10:21:55.686Z,1009.73
2018-08-24T10:23:05.265Z,1009.84
2018-08-24T10:24:15.311Z,1009.85
2018-08-24T10:25:24.881Z,1009.91
2018-08-24T10:26:34.722Z,1009.92
2018-08-24T10:27:44.834Z,1009.88
2018-08-24T10:28:55.262Z,1009.89
2018-08-24T10:30:05.382Z,1009.92
2018-08-24T10:31:15.236Z,1009.96
2018-08-24T10:32:25.346Z,1009.87
2018-08-24T10:33:35.515Z,1009.96
2018-08-24T10:34:45.904Z,1010.02
2018-08-24T10:35:55.516Z,1009.97
2018-08-24T10:37:04.825Z,1009.98
2018-08-24T10:38:14.673Z,1009.95
2018-08-24T10:39:24.519Z,1009.99
2018-08-24T10:40:34.637Z,1009.94
2018-08-24T10:41:44.572Z,1009.99
2018-08-24T10:42:54.423Z,1009.98
2018-08-24T10:44:03.996Z,1010.03
2018-08-24T10:45:13.031Z,1010.04
2018-08-24T10:46:22.888Z,1010.03
2018-08-24T10:47:32.187Z,1010.14
2018-08-24T10:48:42.386Z,1009.96
2018-08-24T10:49:51.968Z,1009.94
2018-08-24T10:51:01.541Z,1010
2018-08-24T10:52:11.179Z,1009.93
2018-08-24T10:53:20.215Z,1009.92
2018-08-24T10:54:29.801Z,1009.97
2018-08-24T10:55:39.949Z,1009.91
2018-08-24T10:56:50.524Z,1009.97
2018-08-24T10:58:00.391Z,1009.86
2018-08-24T10:59:09.966Z,1009.93
2018-08-24T11:00:19.808Z,1009.96
2018-08-24T11:01:29.378Z,1010.02
2018-08-24T11:02:38.687Z,1009.93
2018-08-24T11:03:48.297Z,1010.06
2018-08-24T11:04:58.113Z,1010.01
2018-08-24T11:06:07.956Z,1009.99
2018-08-24T11:07:17.822Z,1009.96
2018-08-24T11:08:27.992Z,1009.94
2018-08-24T11:09:37.292Z,1009.96
2018-08-24T11:10:47.129Z,1010
2018-08-24T11:11:56.969Z,1009.97
2018-08-24T11:13:06.807Z,1009.94
2018-08-24T11:14:16.642Z,1010.05
2018-08-24T11:15:26.216Z,1009.93
2018-08-24T11:16:36.054Z,1010.01
2018-08-24T11:17:46.399Z,1010.07
2018-08-24T11:18:56.036Z,1010.12
2018-08-24T11:20:05.877Z,1010.06
2018-08-24T11:21:15.462Z,1010.02
2018-08-24T11:22:24.768Z,1010.07
2018-08-24T11:23:34.614Z,1010.03
2018-08-24T11:24:44.461Z,1010
2018-08-24T11:25:54.041Z,1010.13
2018-08-24T11:27:03.926Z,1010.12
2018-08-24T11:28:13.778Z,1010.09
2018-08-24T11:29:23.485Z,1010.03
2018-08-24T11:30:33.152Z,1010.12
2018-08-24T11:31:42.727Z,1010.14
2018-08-24T11:32:52.576Z,1010.15
2018-08-24T11:34:01.923Z,1010.06
2018-08-24T11:35:12.308Z,1010.24
2018-08-24T11:36:21.785Z,1010.12
2018-08-24T11:37:32.560Z,1010.19
2018-08-24T11:38:42.129Z,1010.17
2018-08-24T11:39:51.997Z,1010.06
2018-08-24T11:41:01.570Z,1010.05
2018-08-24T11:42:10.953Z,1010.15
2018-08-24T11:43:21.203Z,1010.25
2018-08-24T11:44:31.067Z,1010.21
2018-08-24T11:45:40.418Z,1010.14
2018-08-24T11:46:49.458Z,1010.15
2018-08-24T11:47:59.429Z,1010.15
2018-08-24T11:49:09.388Z,1010.11
2018-08-24T11:50:19.506Z,1010.18
2018-08-24T11:51:29.353Z,1010.23
2018-08-24T11:52:38.999Z,1010.3
2018-08-24T11:53:48.564Z,1010.22
2018-08-24T11:54:58.539Z,1010.13
2018-08-24T11:56:08.119Z,1010.08
2018-08-24T11:57:17.965Z,1010.19
2018-08-24T11:58:28.088Z,1010.19
2018-08-24T11:59:37.502Z,1010.3
2018-08-24T12:00:47.903Z,1010.32
2018-08-24T12:01:57.522Z,1010.3
2018-08-24T12:03:08.059Z,1010.19
2018-08-24T12:04:17.911Z,1010.27
2018-08-24T12:05:27.494Z,1010.34
2018-08-24T12:06:37.073Z,1010.41
2018-08-24T12:07:46.673Z,1010.45
2018-08-24T12:08:57.241Z,1010.51
2018-08-24T12:10:06.820Z,1010.59
2018-08-24T12:11:16.413Z,1010.59
2018-08-24T12:12:26.076Z,1010.57
2018-08-24T12:13:35.973Z,1010.71
2018-08-24T12:14:45.882Z,1010.71
2018-08-24T12:15:55.469Z,1010.71
2018-08-24T12:17:05.052Z,1010.6
2018-08-24T12:18:14.114Z,1010.68
2018-08-24T12:19:24.185Z,1010.55
2018-08-24T12:20:34.028Z,1010.56
2018-08-24T12:21:43.921Z,1010.51
2018-08-24T12:22:54.195Z,1010.51
2018-08-24T12:24:04.044Z,1010.53
2018-08-24T12:25:13.893Z,1010.49
2018-08-24T12:26:23.737Z,1010.46
2018-08-24T12:27:33.852Z,1010.49
2018-08-24T12:28:43.690Z,1010.44
2018-08-24T12:29:52.996Z,1010.44
2018-08-24T12:31:02.951Z,1010.44
2018-08-24T12:32:12.587Z,1010.46
2018-08-24T12:33:22.459Z,1010.44
2018-08-24T12:34:32.064Z,1010.45
2018-08-24T12:35:41.517Z,1010.43
2018-08-24T12:36:51.363Z,1010.44
2018-08-24T12:38:00.699Z,1010.48
2018-08-24T12:39:10.934Z,1010.53
2018-08-24T12:40:20.509Z,1010.5
2018-08-24T12:41:30.359Z,1010.55
2018-08-24T12:42:40.210Z,1010.45
2018-08-24T12:43:49.784Z,1010.45
2018-08-24T12:44:59.636Z,1010.53
2018-08-24T12:46:08.946Z,1010.5
2018-08-24T12:47:18.794Z,1010.49
2018-08-24T12:48:28.377Z,1010.51
2018-08-24T12:49:37.415Z,1010.53
2018-08-24T12:50:47.540Z,1010.56
2018-08-24T12:51:57.436Z,1010.52
2018-08-24T12:53:07.486Z,1010.56
2018-08-24T12:54:17.061Z,1010.52
2018-08-24T12:55:26.905Z,1010.52
2018-08-24T12:56:37.030Z,1010.49
2018-08-24T12:57:47.152Z,1010.52
2018-08-24T12:58:57.264Z,1010.71
2018-08-24T13:00:06.855Z,1010.87
2018-08-24T13:01:16.444Z,1011.09
2018-08-24T13:02:26.292Z,1011.27
2018-08-24T13:03:35.877Z,1011.25
2018-08-24T13:04:45.771Z,1011.34
2018-08-24T13:05:55.073Z,1011.34
2018-08-24T13:07:04.653Z,1011.16
2018-08-24T13:08:14.229Z,1011.13
2018-08-24T13:09:24.073Z,1011.03
2018-08-24T13:10:33.677Z,1011.04
2018-08-24T13:11:42.715Z,1011.08
2018-08-24T13:12:52.556Z,1011.03
2018-08-24T13:14:02.128Z,1011.09
2018-08-24T13:15:10.894Z,1011.05
2018-08-24T13:16:21.507Z,1011.08
2018-08-24T13:17:31.138Z,1011.02
2018-08-24T13:18:40.993Z,1011.04
2018-08-24T13:19:50.559Z,1011.12
2018-08-24T13:20:59.862Z,1011.01
2018-08-24T13:22:09.439Z,1011.02
2018-08-24T13:23:19.281Z,1011.03
2018-08-24T13:24:28.585Z,1010.99
2018-08-24T13:25:38.168Z,1011.03
2018-08-24T13:26:47.748Z,1011.06
2018-08-24T13:27:57.327Z,1010.97
2018-08-24T13:29:08.155Z,1010.92
2018-08-24T13:30:17.993Z,1011.01
2018-08-24T13:31:27.571Z,1010.97
2018-08-24T13:32:36.883Z,1010.91
2018-08-24T13:33:46.736Z,1010.91
2018-08-24T13:34:56.365Z,1010.94
2018-08-24T13:36:05.398Z,1010.91
2018-08-24T13:37:15.526Z,1010.89
2018-08-24T13:38:25.099Z,1010.85
2018-08-24T13:39:35.207Z,1010.85
2018-08-24T13:40:44.782Z,1010.92
2018-08-24T13:41:54.627Z,1010.89
2018-08-24T13:43:04.286Z,1010.88
2018-08-24T13:44:14.133Z,1010.87
2018-08-24T13:45:23.438Z,1010.9
2018-08-24T13:46:33.019Z,1010.95
2018-08-24T13:47:42.594Z,1010.94
2018-08-24T13:48:51.898Z,1010.88
2018-08-24T13:50:01.749Z,1010.92
2018-08-24T13:51:11.328Z,1010.86
2018-08-24T13:52:20.635Z,1010.87
2018-08-24T13:53:29.977Z,1010.92
2018-08-24T13:54:40.290Z,1010.95
2018-08-24T13:55:50.567Z,1010.88
2018-08-24T13:57:00.488Z,1010.88
2018-08-24T13:58:10.340Z,1010.89
2018-08-24T13:59:19.655Z,1010.91
2018-08-24T14:00:30.004Z,1010.91
2018-08-24T14:01:40.119Z,1010.93
2018-08-24T14:02:49.707Z,1010.98
2018-08-24T14:03:59.557Z,1011.1
2018-08-24T14:05:09.409Z,1011.04
2018-08-24T14:06:19.091Z,1010.94
2018-08-24T14:07:28.943Z,1010.92